Tai Da — V3ZG7 — position and weather

sailwx.info

Track history (hours):
 
Tides and Currents Weather Stations Pressure Air Temp Water Temp Dewpoint Dewpoint Depression Visibility Wind Speed Wind Dir Waves Ship Positions

Tai Da

Last reported at 2017-Sep-14 12:25 UTC. Time now 2017-Sep-23 03:50 UTC.
Position N 34°35' E 134°54'.
Warning: this ship's position is 8 days out of date.

Length 74 m; draft 4.4 m.

Type: Cargo ship. MMSI: 312222000.

Date/timePositionNaut miles runAvg speedWind from/ knotsBaromVisibWave heightAir tempDewpointWater temp
2017-Sep-14 12:25N 34°35' E 134°54'4 8.4
2017-Sep-14 11:57N 34°37' E 134°58'3 7.2
2017-Sep-14 11:29N 34°37' E 135°02'4 7.9
2017-Sep-14 11:00N 34°34' E 135°06'5 8.8
2017-Sep-14 10:30N 34°30' E 135°04'5 8.9
2017-Sep-14 09:57N 34°26' E 135°02'12 9.3
2017-Sep-14 08:41N 34°14' E 134°59'210.1
2017-Sep-14 08:30N 34°12' E 134°60'6 9.9
2017-Sep-14 07:56N 34°07' E 135°00'  
2017-Sep-06 11:11N 34°52' E 139°49'610.7
2017-Sep-06 10:37N 34°57' E 139°44'110.4
2017-Sep-06 10:30N 34°58' E 139°43'5 9.4
2017-Sep-06 10:00N 35°02' E 139°44'5 9.2
2017-Sep-06 09:30N 35°07' E 139°45'510.1
2017-Sep-06 09:00N 35°12' E 139°46'5 9.6
2017-Sep-06 08:30N 35°17' E 139°45'5 9.6
2017-Sep-06 08:00N 35°21' E 139°42'5 9.0
2017-Sep-06 07:30N 35°25' E 139°44'5 9.8
2017-Sep-06 07:00N 35°28' E 139°49'5 9.8
2017-Sep-06 06:30N 35°31' E 139°54'9 9.2
2017-Sep-06 05:31N 35°39' E 139°59'0 9.4
2017-Sep-06 05:30N 35°39' E 139°59'1 0.1
2017-Sep-05 20:44N 35°39' E 139°59'2 9.0
2017-Sep-05 20:28N 35°36' E 139°59'1 0.7
2017-Sep-05 19:02N 35°36' E 139°58'0 0.0
2017-Sep-05 18:59N 35°36' E 139°58'0 0.0
2017-Sep-05 18:28N 35°36' E 139°58'0 0.0
2017-Sep-05 14:13N 35°36' E 139°58'0 0.0
2017-Sep-05 13:01N 35°36' E 139°58'0 0.0
2017-Sep-05 12:40N 35°36' E 139°58'0 0.0
2017-Sep-05 12:22N 35°36' E 139°58'0 0.0
2017-Sep-05 11:58N 35°36' E 139°58'0 0.0
2017-Sep-05 11:25N 35°36' E 139°58'0 0.0
2017-Sep-05 10:46N 35°36' E 139°58'0 0.0
2017-Sep-05 10:28N 35°36' E 139°58'0 0.0
2017-Sep-05 06:19N 35°36' E 139°58'2 6.8
2017-Sep-05 06:00N 35°34' E 139°57'5 9.5
2017-Sep-05 05:30N 35°30' E 139°53'5 9.7
2017-Sep-05 05:00N 35°27' E 139°49'5 9.3
2017-Sep-05 04:30N 35°23' E 139°46'5 9.4
2017-Sep-05 04:00N 35°18' E 139°44'5 9.4
2017-Sep-05 03:30N 35°14' E 139°47'4 9.0
2017-Sep-05 03:00N 35°10' E 139°46'4 8.2
2017-Sep-05 02:30N 35°06' E 139°44'4 8.4
2017-Sep-05 02:00N 35°04' E 139°40'5 9.1
2017-Sep-05 01:30N 35°00' E 139°36'  
Track history (hours):
 
Tides and Currents Weather Stations Pressure Air Temp Water Temp Dewpoint Dewpoint Depression Visibility Wind Speed Wind Dir Waves Ship Positions

Tai Da

Last reported at 2017-Sep-14 12:25 UTC. Time now 2017-Sep-23 03:50 UTC.
Position N 34°35' E 134°54'.
Warning: this ship's position is 8 days out of date.

Length 74 m; draft 4.4 m.

Type: Cargo ship. MMSI: 312222000.

Date/timePositionNaut miles runAvg speedWind from/ knotsBaromVisibWave heightAir tempDewpointWater temp
2017-Sep-14 12:25N 34°35' E 134°54'4 8.4
2017-Sep-14 11:57N 34°37' E 134°58'3 7.2
2017-Sep-14 11:29N 34°37' E 135°02'4 7.9
2017-Sep-14 11:00N 34°34' E 135°06'5 8.8
2017-Sep-14 10:30N 34°30' E 135°04'5 8.9
2017-Sep-14 09:57N 34°26' E 135°02'12 9.3
2017-Sep-14 08:41N 34°14' E 134°59'210.1
2017-Sep-14 08:30N 34°12' E 134°60'6 9.9
2017-Sep-14 07:56N 34°07' E 135°00'  
2017-Sep-06 11:11N 34°52' E 139°49'610.7
2017-Sep-06 10:37N 34°57' E 139°44'110.4
2017-Sep-06 10:30N 34°58' E 139°43'5 9.4
2017-Sep-06 10:00N 35°02' E 139°44'5 9.2
2017-Sep-06 09:30N 35°07' E 139°45'510.1
2017-Sep-06 09:00N 35°12' E 139°46'5 9.6
2017-Sep-06 08:30N 35°17' E 139°45'5 9.6
2017-Sep-06 08:00N 35°21' E 139°42'5 9.0
2017-Sep-06 07:30N 35°25' E 139°44'5 9.8
2017-Sep-06 07:00N 35°28' E 139°49'5 9.8
2017-Sep-06 06:30N 35°31' E 139°54'9 9.2
2017-Sep-06 05:31N 35°39' E 139°59'0 9.4
2017-Sep-06 05:30N 35°39' E 139°59'1 0.1
2017-Sep-05 20:44N 35°39' E 139°59'2 9.0
2017-Sep-05 20:28N 35°36' E 139°59'1 0.7
2017-Sep-05 19:02N 35°36' E 139°58'0 0.0
2017-Sep-05 18:59N 35°36' E 139°58'0 0.0
2017-Sep-05 18:28N 35°36' E 139°58'0 0.0
2017-Sep-05 14:13N 35°36' E 139°58'0 0.0
2017-Sep-05 13:01N 35°36' E 139°58'0 0.0
2017-Sep-05 12:40N 35°36' E 139°58'0 0.0
2017-Sep-05 12:22N 35°36' E 139°58'0 0.0
2017-Sep-05 11:58N 35°36' E 139°58'0 0.0
2017-Sep-05 11:25N 35°36' E 139°58'0 0.0
2017-Sep-05 10:46N 35°36' E 139°58'0 0.0
2017-Sep-05 10:28N 35°36' E 139°58'0 0.0
2017-Sep-05 06:19N 35°36' E 139°58'2 6.8
2017-Sep-05 06:00N 35°34' E 139°57'5 9.5
2017-Sep-05 05:30N 35°30' E 139°53'5 9.7
2017-Sep-05 05:00N 35°27' E 139°49'5 9.3
2017-Sep-05 04:30N 35°23' E 139°46'5 9.4
2017-Sep-05 04:00N 35°18' E 139°44'5 9.4
2017-Sep-05 03:30N 35°14' E 139°47'4 9.0
2017-Sep-05 03:00N 35°10' E 139°46'4 8.2
2017-Sep-05 02:30N 35°06' E 139°44'4 8.4
2017-Sep-05 02:00N 35°04' E 139°40'5 9.1
2017-Sep-05 01:30N 35°00' E 139°36'  

Dump ship's entire track history